Time;durP1;ratioP1;P1;durP2;ratioP2;P2;SDS_P1;SDS_P2;PMS_P1;PMS_P2;Temp;Humidity;BMP_temperature;BMP_pressure;BME280_temperature;BME280_humidity;BME280_pressure;Samples;Min_cycle;Max_cycle;Signal;HPM_P1;HPM_P2
2023/10/14 00:01:31;;;;;;;10.23;2.03;;;13.30;99.90;;;;;;4942889;29;20101;-74
2023/10/14 00:03:57;;;;;;;10.23;1.33;;;13.20;99.90;;;;;;4944026;28;20078;-70
2023/10/14 00:06:24;;;;;;;8.30;1.58;;;13.20;99.90;;;;;;4962804;28;20050;-70
2023/10/14 00:11:22;;;;;;;18.88;2.30;;;13.00;99.90;;;;;;4960844;28;20094;-70
2023/10/14 00:13:52;;;;;;;9.90;1.52;;;13.00;99.90;;;;;;4945683;28;20058;-69
2023/10/14 00:18:52;;;;;;;15.00;1.60;;;12.90;99.90;;;;;;4959582;28;20090;-72
2023/10/14 00:21:18;;;;;;;8.43;1.58;;;12.90;99.90;;;;;;4959523;28;20055;-67
2023/10/14 00:23:44;;;;;;;18.10;2.08;;;12.90;99.90;;;;;;4942471;29;20055;-69
2023/10/14 00:26:17;;;;;;;10.05;1.58;;;12.90;99.90;;;;;;4960209;28;20047;-68
2023/10/14 00:28:45;;;;;;;11.20;1.35;;;12.80;99.90;;;;;;4962422;28;20054;-69
2023/10/14 00:31:12;;;;;;;11.57;1.45;;;12.90;99.90;;;;;;4962050;28;20058;-70
2023/10/14 00:33:38;;;;;;;17.25;2.03;;;12.70;99.90;;;;;;4942010;29;20067;-70
2023/10/14 00:36:10;;;;;;;16.30;1.92;;;12.70;99.90;;;;;;4941965;29;20462;-74
2023/10/14 00:38:43;;;;;;;9.70;1.33;;;12.60;99.90;;;;;;4962327;28;20399;-70
2023/10/14 00:41:09;;;;;;;16.27;1.70;;;12.60;99.90;;;;;;4958879;28;20085;-68
2023/10/14 00:43:36;;;;;;;8.43;1.40;;;12.60;99.90;;;;;;4960970;28;20130;-70
2023/10/14 00:46:12;;;;;;;15.02;1.58;;;12.50;99.90;;;;;;4962671;28;20047;-67
2023/10/14 00:48:40;;;;;;;11.10;1.40;;;12.50;99.90;;;;;;4943342;28;20050;-71
2023/10/14 00:51:10;;;;;;;11.80;1.65;;;12.40;99.90;;;;;;4939972;28;20061;-68
2023/10/14 00:53:39;;;;;;;12.82;1.77;;;12.40;99.90;;;;;;4961433;28;20055;-68
2023/10/14 00:56:06;;;;;;;11.32;1.95;;;12.40;99.90;;;;;;4959475;28;20142;-69
2023/10/14 00:58:39;;;;;;;7.80;1.33;;;12.20;99.90;;;;;;4941570;29;20058;-69
2023/10/14 01:01:06;;;;;;;9.90;1.85;;;12.10;99.90;;;;;;4950218;28;20039;-69
2023/10/14 01:03:33;;;;;;;8.95;1.48;;;12.10;99.90;;;;;;4962856;28;20047;-69
2023/10/14 01:08:53;;;;;;;7.38;2.00;;;12.00;99.90;;;;;;4941811;29;20137;-68
2023/10/14 01:11:20;;;;;;;12.90;1.95;;;12.00;99.90;;;;;;4933419;29;20087;-69
2023/10/14 01:13:46;;;;;;;15.18;1.80;;;11.90;99.90;;;;;;4938444;29;20047;-68
2023/10/14 01:16:12;;;;;;;11.27;1.83;;;11.90;99.90;;;;;;4942850;29;20194;-68
2023/10/14 01:18:41;;;;;;;12.00;1.60;;;11.90;99.90;;;;;;4943130;28;20074;-67
2023/10/14 01:21:07;;;;;;;14.35;2.10;;;11.80;99.90;;;;;;4940167;29;20055;-69
2023/10/14 01:23:37;;;;;;;14.75;1.88;;;11.70;99.90;;;;;;4938514;29;20514;-69
2023/10/14 01:26:09;;;;;;;15.43;2.70;;;11.70;99.90;;;;;;4939865;29;20048;-68
2023/10/14 01:28:42;;;;;;;12.80;1.88;;;11.60;99.90;;;;;;4939456;29;20063;-68
2023/10/14 01:33:56;;;;;;;15.65;2.03;;;11.40;99.90;;;;;;4937794;29;20079;-68
2023/10/14 01:36:32;;;;;;;11.23;1.83;;;11.50;99.90;;;;;;4943167;29;20048;-69
2023/10/14 01:39:04;;;;;;;12.20;1.95;;;11.40;99.90;;;;;;4946230;29;20102;-70
2023/10/14 01:41:30;;;;;;;14.75;2.30;;;11.40;99.90;;;;;;4945657;29;20062;-69
2023/10/14 01:44:09;;;;;;;15.05;1.88;;;11.50;99.90;;;;;;4943140;29;20060;-68
2023/10/14 01:46:39;;;;;;;12.50;2.05;;;11.30;99.90;;;;;;4943785;29;20550;-70
2023/10/14 01:49:15;;;;;;;13.00;2.28;;;11.30;99.90;;;;;;4944617;29;20132;-70
2023/10/14 01:51:41;;;;;;;15.25;1.92;;;11.20;99.90;;;;;;4944346;29;20055;-72
2023/10/14 01:54:09;;;;;;;11.25;1.77;;;11.20;99.90;;;;;;4942979;29;20116;-68
2023/10/14 01:56:37;;;;;;;14.68;1.95;;;11.20;99.90;;;;;;4942707;29;20448;-73
2023/10/14 01:59:03;;;;;;;11.95;2.08;;;11.10;99.90;;;;;;4942880;29;20114;-70
2023/10/14 02:01:31;;;;;;;16.90;1.67;;;11.10;99.90;;;;;;4942454;29;20503;-68
2023/10/14 02:03:59;;;;;;;12.93;1.63;;;11.00;99.90;;;;;;4945078;29;20043;-69
2023/10/14 02:06:26;;;;;;;15.27;1.90;;;10.90;99.90;;;;;;4956642;28;20085;-70
2023/10/14 02:08:54;;;;;;;14.32;1.98;;;11.00;99.90;;;;;;4964325;28;20058;-69
2023/10/14 02:11:20;;;;;;;11.35;2.15;;;10.90;99.90;;;;;;4944715;29;20118;-71
2023/10/14 02:13:49;;;;;;;14.80;1.80;;;10.90;99.90;;;;;;4961990;28;20066;-69
2023/10/14 02:16:16;;;;;;;12.30;1.60;;;10.80;99.90;;;;;;4953123;28;20111;-69
2023/10/14 02:18:42;;;;;;;12.13;1.70;;;10.80;99.90;;;;;;4961777;28;20093;-69
2023/10/14 02:21:11;;;;;;;13.75;2.25;;;10.80;99.90;;;;;;4945476;28;20059;-68
2023/10/14 02:23:45;;;;;;;13.10;1.88;;;10.70;99.90;;;;;;4964993;28;20398;-69
2023/10/14 02:26:30;;;;;;;8.50;1.67;;;10.70;99.90;;;;;;4963695;28;20126;-69
2023/10/14 02:28:57;;;;;;;8.38;1.85;;;10.70;99.90;;;;;;4961309;28;20041;-69
2023/10/14 02:33:59;;;;;;;7.93;1.73;;;10.60;99.90;;;;;;4964823;28;20440;-70
2023/10/14 02:36:35;;;;;;;11.63;1.42;;;10.70;99.90;;;;;;4945385;28;20142;-69
2023/10/14 02:39:14;;;;;;;12.35;2.22;;;10.50;99.90;;;;;;4959858;28;20117;-69
2023/10/14 02:41:43;;;;;;;16.33;2.10;;;10.70;99.90;;;;;;4953172;28;20043;-69
2023/10/14 02:46:47;;;;;;;13.00;1.92;;;10.50;99.90;;;;;;4962510;28;20062;-70
2023/10/14 02:49:18;;;;;;;13.18;1.85;;;10.50;99.90;;;;;;4964138;28;20046;-69
2023/10/14 02:51:45;;;;;;;19.60;3.22;;;10.50;99.90;;;;;;4961696;28;20050;-73
2023/10/14 02:54:15;;;;;;;18.15;1.90;;;10.50;99.90;;;;;;4961148;28;20058;-70
2023/10/14 02:56:55;;;;;;;16.50;2.10;;;10.40;99.90;;;;;;4944550;28;20065;-69
2023/10/14 02:59:29;;;;;;;11.98;2.05;;;10.40;99.90;;;;;;4957812;28;20049;-68
2023/10/14 03:07:28;;;;;;;16.20;2.05;;;10.40;99.90;;;;;;4954276;28;20139;-69
2023/10/14 03:12:39;;;;;;;16.35;1.95;;;10.50;99.90;;;;;;4960148;28;20051;-70
2023/10/14 03:15:18;;;;;;;16.65;2.15;;;10.40;99.90;;;;;;4965303;28;20125;-68
2023/10/14 03:17:58;;;;;;;12.27;1.90;;;10.40;99.90;;;;;;4942405;28;20121;-70
2023/10/14 03:23:18;;;;;;;15.65;1.73;;;10.50;99.90;;;;;;4960778;28;20051;-68
2023/10/14 03:25:49;;;;;;;16.58;2.17;;;10.40;99.90;;;;;;4958438;28;20039;-68
2023/10/14 03:28:16;;;;;;;15.63;2.08;;;10.30;99.90;;;;;;4947059;28;20121;-70
2023/10/14 03:30:55;;;;;;;10.07;1.50;;;10.30;99.90;;;;;;4960218;28;20063;-68
2023/10/14 03:33:21;;;;;;;20.40;2.50;;;10.30;99.90;;;;;;4944376;28;20149;-68
2023/10/14 03:35:57;;;;;;;12.93;1.60;;;10.60;99.90;;;;;;4963584;28;20110;-69
2023/10/14 03:41:19;;;;;;;13.05;2.10;;;10.30;99.90;;;;;;4944574;28;20117;-69
2023/10/14 03:46:33;;;;;;;13.68;2.00;;;10.20;99.90;;;;;;4960181;28;20055;-69
2023/10/14 03:49:05;;;;;;;;;;;10.20;99.90;;;;;;4947309;28;20050;-68
2023/10/14 03:51:32;;;;;;;17.88;2.33;;;10.20;99.90;;;;;;4962421;28;19933;-69
2023/10/14 03:54:07;;;;;;;11.55;1.67;;;10.20;99.90;;;;;;4960263;28;20054;-68
2023/10/14 03:56:34;;;;;;;13.57;1.85;;;10.10;99.90;;;;;;4963477;28;20160;-68
2023/10/14 03:59:01;;;;;;;13.98;1.83;;;10.10;99.90;;;;;;4960143;28;20047;-68
2023/10/14 04:04:19;;;;;;;17.73;2.00;;;10.20;99.90;;;;;;4952192;28;20419;-68
2023/10/14 04:07:14;;;;;;;10.18;2.08;;;10.00;99.90;;;;;;4959848;28;20419;-68
2023/10/14 04:09:44;;;;;;;13.05;1.83;;;10.00;99.90;;;;;;4946038;28;20059;-70
2023/10/14 04:12:30;;;;;;;17.75;2.00;;;10.00;99.90;;;;;;4949437;28;20094;-67
2023/10/14 04:15:22;;;;;;;11.38;2.00;;;9.90;99.90;;;;;;4963903;28;20038;-69
2023/10/14 04:17:52;;;;;;;19.73;2.28;;;9.90;99.90;;;;;;4959435;28;20042;-71
2023/10/14 04:20:29;;;;;;;13.68;2.17;;;9.90;99.90;;;;;;4959680;28;20055;-71
2023/10/14 04:22:55;;;;;;;11.25;1.83;;;9.90;99.90;;;;;;4959740;28;20054;-71
2023/10/14 04:25:22;;;;;;;16.35;2.35;;;10.00;99.90;;;;;;4945126;28;20042;-69
2023/10/14 04:35:24;;;;;;;12.60;2.13;;;10.00;99.90;;;;;;4960374;28;20051;-69
2023/10/14 04:37:51;;;;;;;11.57;1.85;;;9.90;99.90;;;;;;4947806;29;20042;-70
2023/10/14 04:43:19;;;;;;;12.60;1.80;;;9.90;99.90;;;;;;4955879;28;20055;-71
2023/10/14 04:45:52;;;;;;;12.75;1.80;;;9.80;99.90;;;;;;4960021;28;20048;-74
2023/10/14 04:48:26;;;;;;;13.27;1.65;;;9.80;99.90;;;;;;4942662;28;20554;-75
2023/10/14 04:50:57;;;;;;;12.73;2.40;;;9.80;99.90;;;;;;4942126;28;20124;-70
2023/10/14 04:53:31;;;;;;;13.55;2.00;;;9.90;99.90;;;;;;4940636;28;20053;-74
2023/10/14 04:56:01;;;;;;;10.48;1.77;;;9.80;99.90;;;;;;4927173;28;20406;-69
2023/10/14 04:58:27;;;;;;;10.50;1.77;;;9.90;99.90;;;;;;4960716;28;20035;-68
2023/10/14 05:00:56;;;;;;;11.18;1.50;;;9.90;99.90;;;;;;4941909;29;20050;-68
2023/10/14 05:03:22;;;;;;;21.17;2.58;;;10.00;99.90;;;;;;4959079;28;20043;-68
2023/10/14 05:05:50;;;;;;;13.38;1.92;;;9.70;99.90;;;;;;4961823;28;20050;-70
2023/10/14 05:08:21;;;;;;;10.02;1.75;;;9.80;99.90;;;;;;4966199;28;20098;-68
2023/10/14 05:10:50;;;;;;;12.50;2.13;;;9.90;99.90;;;;;;4960039;28;20392;-67
2023/10/14 05:13:19;;;;;;;14.55;1.65;;;10.10;99.90;;;;;;4968123;28;20081;-67
2023/10/14 05:15:53;;;;;;;19.75;2.67;;;9.80;99.90;;;;;;4964693;28;20039;-68
2023/10/14 05:18:27;;;;;;;17.27;2.13;;;9.80;99.90;;;;;;4965931;28;20544;-69
2023/10/14 05:23:24;;;;;;;18.60;1.80;;;9.70;99.90;;;;;;4965889;28;20080;-68
2023/10/14 05:25:56;;;;;;;16.80;1.80;;;9.70;99.90;;;;;;4964669;28;20043;-69
2023/10/14 05:28:28;;;;;;;14.57;2.17;;;9.60;99.90;;;;;;4962526;28;20154;-68
2023/10/14 05:30:55;;;;;;;15.63;1.65;;;9.60;99.90;;;;;;4963765;28;20051;-68
2023/10/14 05:33:21;;;;;;;11.90;2.10;;;9.60;99.90;;;;;;4965509;28;20054;-68
2023/10/14 05:35:48;;;;;;;15.60;2.10;;;9.50;99.90;;;;;;4965289;28;20042;-69
2023/10/14 05:38:17;;;;;;;18.73;2.53;;;9.50;99.90;;;;;;4964034;28;20709;-69
2023/10/14 05:40:43;;;;;;;11.52;1.92;;;9.50;99.90;;;;;;4964611;28;20046;-70
2023/10/14 05:43:09;;;;;;;18.95;2.50;;;9.50;99.90;;;;;;4959460;28;20086;-70
2023/10/14 05:45:38;;;;;;;17.35;2.08;;;9.40;99.90;;;;;;4965840;28;20434;-72
2023/10/14 05:48:07;;;;;;;18.45;2.08;;;9.60;99.90;;;;;;4947702;28;20051;-68
2023/10/14 05:50:35;;;;;;;11.82;2.30;;;9.40;99.90;;;;;;4954473;28;20047;-73
2023/10/14 05:53:01;;;;;;;14.05;1.92;;;9.40;99.90;;;;;;4963119;28;20034;-69
2023/10/14 05:55:31;;;;;;;11.65;1.42;;;9.40;99.90;;;;;;4963086;28;20130;-72
2023/10/14 05:58:02;;;;;;;14.68;2.03;;;9.30;99.90;;;;;;4944793;29;20043;-72
2023/10/14 06:00:28;;;;;;;14.25;2.33;;;9.50;99.90;;;;;;4947742;28;20058;-69
2023/10/14 06:02:55;;;;;;;18.17;2.78;;;9.30;99.90;;;;;;4961892;28;20040;-69
2023/10/14 06:05:23;;;;;;;11.98;2.20;;;9.30;99.90;;;;;;4945703;28;20074;-71
2023/10/14 06:07:49;;;;;;;14.30;2.03;;;9.30;99.90;;;;;;4961468;28;20114;-70
2023/10/14 06:10:20;;;;;;;16.15;2.35;;;9.30;99.90;;;;;;4944378;29;20055;-72
2023/10/14 06:12:47;;;;;;;13.95;1.90;;;9.20;99.90;;;;;;4965332;28;20042;-70
2023/10/14 06:15:17;;;;;;;19.33;2.75;;;9.30;99.90;;;;;;4961590;28;20051;-72
2023/10/14 06:17:44;;;;;;;14.60;1.98;;;9.20;99.90;;;;;;4962372;28;20047;-71
2023/10/14 06:20:14;;;;;;;16.65;2.53;;;9.30;99.90;;;;;;4962277;28;20086;-69
2023/10/14 06:22:41;;;;;;;14.82;2.00;;;9.20;99.90;;;;;;4961229;28;20130;-72
2023/10/14 06:25:07;;;;;;;12.25;2.40;;;9.30;99.90;;;;;;4965033;28;20384;-68
2023/10/14 06:27:33;;;;;;;15.10;2.00;;;9.20;99.90;;;;;;4964613;28;20061;-68
2023/10/14 06:29:58;;;;;;;14.82;2.25;;;9.20;99.90;;;;;;4962314;28;20565;-72
2023/10/14 06:32:24;;;;;;;16.20;1.80;;;9.40;99.90;;;;;;4961464;28;20051;-68
2023/10/14 06:34:59;;;;;;;16.73;1.88;;;9.30;99.90;;;;;;4944236;29;20082;-70
2023/10/14 06:37:25;;;;;;;19.25;2.97;;;9.30;99.90;;;;;;4937121;29;20142;-72
2023/10/14 06:39:51;;;;;;;20.85;1.90;;;9.40;99.90;;;;;;4961088;28;20039;-69
2023/10/14 06:42:22;;;;;;;17.95;2.47;;;9.40;99.90;;;;;;4964166;28;20471;-69
2023/10/14 06:44:48;;;;;;;23.52;2.40;;;9.50;99.90;;;;;;4964275;28;20441;-68
2023/10/14 06:47:13;;;;;;;19.35;2.95;;;9.50;99.90;;;;;;4962853;28;20387;-70
2023/10/14 06:49:41;;;;;;;16.00;2.38;;;9.60;99.90;;;;;;4961289;28;20106;-71
2023/10/14 06:52:14;;;;;;;18.33;2.30;;;9.70;99.90;;;;;;4960792;28;20090;-68
2023/10/14 06:54:41;;;;;;;16.10;2.85;;;9.70;99.90;;;;;;4956424;28;20058;-69
2023/10/14 06:57:09;;;;;;;17.88;2.35;;;9.90;99.90;;;;;;4961160;28;20039;-69
2023/10/14 06:59:38;;;;;;;17.90;2.22;;;9.90;99.90;;;;;;4963678;28;20066;-70
2023/10/14 07:02:03;;;;;;;20.83;2.30;;;9.90;99.90;;;;;;4964017;28;20039;-69
2023/10/14 07:04:29;;;;;;;13.60;2.20;;;9.90;99.90;;;;;;4962644;28;20111;-72
2023/10/14 07:06:58;;;;;;;20.48;2.20;;;10.00;99.90;;;;;;4960116;28;20055;-67
2023/10/14 07:09:27;;;;;;;19.60;2.58;;;10.10;99.90;;;;;;4961007;28;20059;-67
2023/10/14 07:11:55;;;;;;;14.30;2.08;;;10.10;99.90;;;;;;4953169;28;20118;-68
2023/10/14 07:14:23;;;;;;;18.58;2.35;;;10.10;99.90;;;;;;4961132;28;20105;-68
2023/10/14 07:16:50;;;;;;;11.65;2.65;;;10.20;99.90;;;;;;4962788;28;20098;-69
2023/10/14 07:19:17;;;;;;;14.35;2.53;;;10.20;99.90;;;;;;4963382;28;20142;-68
2023/10/14 07:21:43;;;;;;;18.65;2.42;;;10.20;99.90;;;;;;4962938;28;20448;-68
2023/10/14 07:24:09;;;;;;;12.13;2.30;;;10.30;99.90;;;;;;4960510;28;20122;-68
2023/10/14 07:26:39;;;;;;;21.02;2.70;;;10.60;99.90;;;;;;4959092;28;20133;-70
2023/10/14 07:29:05;;;;;;;14.95;2.72;;;10.30;99.90;;;;;;4943227;28;20058;-69
2023/10/14 07:31:31;;;;;;;14.43;2.13;;;10.40;99.90;;;;;;4959760;28;20078;-67
2023/10/14 07:34:02;;;;;;;16.30;1.98;;;10.60;99.90;;;;;;4960943;28;20460;-69
2023/10/14 07:36:29;;;;;;;11.55;2.08;;;10.70;99.90;;;;;;4962934;28;20051;-69
2023/10/14 07:39:02;;;;;;;13.98;2.15;;;10.80;99.90;;;;;;4945612;28;20054;-69
2023/10/14 07:41:28;;;;;;;13.18;1.90;;;10.80;99.90;;;;;;4936055;29;20054;-69
2023/10/14 07:43:54;;;;;;;11.40;1.77;;;10.80;99.90;;;;;;4959123;28;20047;-69
2023/10/14 07:46:20;;;;;;;17.98;2.20;;;10.80;99.90;;;;;;4960487;28;20380;-69
2023/10/14 07:48:46;;;;;;;11.05;2.30;;;11.10;99.90;;;;;;4958045;28;20383;-70
2023/10/14 07:51:13;;;;;;;13.68;2.05;;;11.00;99.90;;;;;;4964093;28;20050;-72
2023/10/14 07:53:40;;;;;;;10.13;1.63;;;11.20;99.90;;;;;;4961122;28;20495;-68
2023/10/14 07:56:06;;;;;;;19.60;2.30;;;11.10;99.90;;;;;;4964565;28;20043;-73
2023/10/14 07:58:32;;;;;;;16.10;1.90;;;11.40;99.90;;;;;;4960903;28;20057;-68
2023/10/14 08:00:58;;;;;;;15.07;1.75;;;11.20;99.90;;;;;;4960124;28;20411;-69
2023/10/14 08:03:29;;;;;;;14.02;2.10;;;11.20;99.90;;;;;;4943120;28;20047;-69
2023/10/14 08:06:05;;;;;;;19.50;2.55;;;11.30;99.90;;;;;;4941046;29;20062;-72
2023/10/14 08:08:31;;;;;;;13.52;1.85;;;11.40;99.90;;;;;;4964083;28;20055;-69
2023/10/14 08:10:58;;;;;;;16.80;2.42;;;11.40;99.90;;;;;;4962133;28;20062;-73
2023/10/14 08:13:24;;;;;;;20.73;2.83;;;11.50;99.90;;;;;;4945670;28;20101;-72
2023/10/14 08:15:51;;;;;;;15.88;2.50;;;11.60;99.90;;;;;;4956288;28;20043;-73
2023/10/14 08:18:19;;;;;;;14.95;2.28;;;11.70;99.90;;;;;;4962691;28;20042;-68
2023/10/14 08:20:45;;;;;;;12.30;1.85;;;11.80;99.90;;;;;;4944591;28;20583;-70
2023/10/14 08:23:12;;;;;;;16.60;2.58;;;11.90;99.90;;;;;;4959735;28;20043;-72
2023/10/14 08:25:41;;;;;;;16.73;2.55;;;12.00;99.90;;;;;;4959384;28;20043;-71
2023/10/14 08:28:10;;;;;;;12.95;2.10;;;12.00;99.90;;;;;;4951628;28;20486;-69
2023/10/14 08:30:45;;;;;;;15.98;2.20;;;12.20;99.90;;;;;;4945153;28;20082;-68
2023/10/14 08:33:15;;;;;;;14.98;2.28;;;12.30;99.90;;;;;;4942481;28;20137;-68
2023/10/14 08:35:42;;;;;;;14.98;2.25;;;12.50;99.90;;;;;;4959371;28;20047;-69
2023/10/14 08:38:14;;;;;;;18.60;2.72;;;12.60;99.90;;;;;;4943679;28;20113;-69
2023/10/14 08:40:40;;;;;;;13.73;2.67;;;12.70;99.90;;;;;;4945124;28;20121;-69
2023/10/14 08:43:10;;;;;;;17.40;2.67;;;13.00;99.90;;;;;;4965241;28;20150;-69
2023/10/14 08:45:39;;;;;;;17.20;2.28;;;13.00;99.90;;;;;;4963262;28;20051;-70
2023/10/14 08:48:06;;;;;;;13.27;2.30;;;13.20;99.90;;;;;;4963391;28;20524;-69
2023/10/14 08:50:33;;;;;;;10.63;2.03;;;13.20;99.90;;;;;;4966393;28;20070;-71
2023/10/14 08:53:03;;;;;;;12.25;1.92;;;13.20;99.90;;;;;;4959623;28;20043;-70
2023/10/14 08:55:33;;;;;;;14.60;2.75;;;13.40;99.90;;;;;;4948037;28;20051;-69
2023/10/14 08:58:02;;;;;;;14.30;1.55;;;13.40;99.90;;;;;;4966075;28;20450;-69
2023/10/14 09:00:29;;;;;;;12.82;1.70;;;13.60;99.90;;;;;;4947309;28;20051;-70
2023/10/14 09:02:57;;;;;;;13.48;2.13;;;13.80;99.90;;;;;;4945990;29;20055;-70
2023/10/14 09:05:26;;;;;;;11.25;1.45;;;13.70;99.90;;;;;;4960845;28;20044;-71
2023/10/14 09:07:54;;;;;;;18.05;2.17;;;13.80;99.90;;;;;;4966137;28;20051;-70
2023/10/14 09:10:20;;;;;;;12.85;1.80;;;13.90;99.90;;;;;;4963182;28;20043;-70
2023/10/14 09:13:00;;;;;;;9.38;1.55;;;14.10;99.90;;;;;;4965630;28;20058;-69
2023/10/14 09:15:31;;;;;;;15.55;2.15;;;14.20;99.90;;;;;;4965388;28;20086;-69
2023/10/14 09:17:57;;;;;;;10.00;1.70;;;14.30;99.90;;;;;;4937936;29;20050;-71
2023/10/14 09:20:35;;;;;;;14.23;1.90;;;14.20;99.90;;;;;;4962963;28;20050;-71
2023/10/14 09:23:14;;;;;;;14.40;2.15;;;14.00;99.90;;;;;;4954790;28;20407;-67
2023/10/14 09:25:46;;;;;;;16.15;2.15;;;14.20;99.90;;;;;;4948236;28;20499;-72
2023/10/14 09:28:13;;;;;;;16.42;2.28;;;14.10;99.90;;;;;;4955572;28;20059;-68
2023/10/14 09:30:44;;;;;;;12.07;2.13;;;14.10;99.90;;;;;;4962802;28;20403;-71
2023/10/14 09:33:15;;;;;;;15.40;1.73;;;14.20;99.90;;;;;;4945926;28;20054;-68
2023/10/14 09:35:44;;;;;;;8.02;1.63;;;14.30;99.90;;;;;;4962635;28;20126;-69
2023/10/14 09:38:14;;;;;;;10.27;1.42;;;14.50;99.90;;;;;;4947566;28;20051;-70
2023/10/14 09:40:40;;;;;;;10.30;1.77;;;14.70;99.90;;;;;;4948392;28;20039;-69
2023/10/14 09:43:06;;;;;;;10.88;1.70;;;14.60;99.90;;;;;;4964542;28;20434;-69
2023/10/14 09:45:33;;;;;;;11.07;2.10;;;14.50;99.90;;;;;;4962258;28;20113;-68
2023/10/14 09:48:01;;;;;;;13.32;1.88;;;14.80;99.90;;;;;;4962570;28;20169;-70
2023/10/14 09:50:29;;;;;;;15.52;2.55;;;15.10;99.90;;;;;;4965129;28;20054;-70
2023/10/14 09:52:57;;;;;;;14.60;2.65;;;15.10;99.90;;;;;;4964101;28;20062;-75
2023/10/14 09:55:24;;;;;;;13.25;2.03;;;15.20;99.90;;;;;;4963483;28;20422;-69
2023/10/14 09:57:51;;;;;;;19.70;1.85;;;15.00;99.90;;;;;;4962891;28;20547;-68
2023/10/14 10:00:18;;;;;;;12.15;1.50;;;14.90;99.90;;;;;;4963067;28;20117;-68
2023/10/14 10:02:48;;;;;;;10.30;1.85;;;14.70;99.90;;;;;;4967643;28;20379;-74
2023/10/14 10:05:20;;;;;;;7.22;1.20;;;14.50;99.90;;;;;;4950198;28;20128;-71
2023/10/14 10:08:02;;;;;;;7.38;1.60;;;13.80;99.90;;;;;;4956033;28;20510;-70
2023/10/14 10:10:30;;;;;;;8.38;1.40;;;13.50;99.90;;;;;;4963052;28;20109;-75
2023/10/14 10:12:57;;;;;;;4.07;0.95;;;13.40;99.90;;;;;;4965045;28;20096;-73
2023/10/14 10:15:26;;;;;;;4.68;0.75;;;13.60;99.90;;;;;;4947646;28;20127;-73
2023/10/14 10:18:05;;;;;;;6.53;1.00;;;13.60;99.90;;;;;;4959227;28;20042;-71
2023/10/14 10:20:36;;;;;;;5.07;0.75;;;13.80;99.90;;;;;;4965723;28;20074;-70
2023/10/14 10:23:05;;;;;;;9.30;1.00;;;14.00;99.90;;;;;;4953980;28;20043;-76
2023/10/14 10:25:36;;;;;;;4.10;0.90;;;14.10;99.90;;;;;;4961726;28;20094;-72
2023/10/14 10:28:27;;;;;;;8.25;0.90;;;14.20;99.90;;;;;;4963974;28;20065;-70
2023/10/14 10:31:07;;;;;;;7.47;1.02;;;14.30;99.90;;;;;;4958408;28;20050;-70
2023/10/14 10:33:51;;;;;;;7.65;1.38;;;14.30;99.90;;;;;;4964646;28;20058;-73
2023/10/14 10:36:28;;;;;;;6.13;0.93;;;14.20;99.90;;;;;;4954061;28;20039;-68
2023/10/14 10:38:57;;;;;;;5.55;1.10;;;14.00;99.90;;;;;;4944102;28;20558;-70
2023/10/14 10:41:27;;;;;;;6.82;1.05;;;14.00;99.90;;;;;;4946788;28;20093;-72
2023/10/14 10:44:05;;;;;;;8.07;0.98;;;14.20;99.90;;;;;;4964110;28;20043;-69
2023/10/14 10:46:40;;;;;;;7.70;1.50;;;14.40;99.90;;;;;;4954696;28;20093;-69
2023/10/14 10:49:07;;;;;;;9.25;1.10;;;14.50;99.90;;;;;;4961857;28;20129;-71
2023/10/14 10:51:34;;;;;;;13.65;1.58;;;14.70;99.90;;;;;;4944681;28;20512;-72
2023/10/14 10:54:01;;;;;;;10.52;1.60;;;14.80;99.90;;;;;;4961258;28;20134;-69
2023/10/14 10:56:29;;;;;;;7.40;1.20;;;15.00;99.90;;;;;;4960218;28;20070;-70
2023/10/14 10:58:57;;;;;;;10.10;1.52;;;15.00;99.90;;;;;;4966453;28;20046;-71
2023/10/14 11:01:23;;;;;;;8.68;1.80;;;15.10;99.90;;;;;;4944850;28;20055;-69
2023/10/14 11:03:49;;;;;;;11.90;1.80;;;15.30;99.90;;;;;;4963681;28;20745;-70
2023/10/14 11:06:17;;;;;;;8.68;1.80;;;15.30;99.90;;;;;;4963844;28;20137;-70
2023/10/14 11:08:46;;;;;;;14.73;2.10;;;15.20;99.90;;;;;;4943825;28;20055;-69
2023/10/14 11:11:14;;;;;;;15.10;2.28;;;15.20;99.90;;;;;;4961079;28;20074;-71
2023/10/14 11:13:40;;;;;;;11.10;1.70;;;15.00;99.90;;;;;;4962431;28;20061;-76
2023/10/14 11:16:11;;;;;;;14.40;2.40;;;14.60;99.90;;;;;;4964213;28;20043;-76
2023/10/14 11:18:46;;;;;;;15.13;2.10;;;14.10;99.90;;;;;;4963616;28;20054;-71
2023/10/14 11:21:12;;;;;;;13.35;2.55;;;13.90;99.90;;;;;;4961297;28;20042;-70
2023/10/14 11:23:39;;;;;;;16.17;1.90;;;13.70;99.90;;;;;;4961067;28;20407;-72
2023/10/14 11:26:15;;;;;;;13.43;1.95;;;13.50;99.90;;;;;;4946598;28;20053;-69
2023/10/14 11:28:45;;;;;;;12.85;2.20;;;13.50;99.90;;;;;;4963462;28;20050;-75
2023/10/14 11:31:11;;;;;;;16.63;2.22;;;13.30;99.90;;;;;;4953053;28;20043;-72
2023/10/14 11:33:37;;;;;;;12.27;2.80;;;13.30;99.90;;;;;;4960479;28;20047;-73
2023/10/14 11:36:04;;;;;;;15.95;2.30;;;12.90;99.90;;;;;;4962640;28;20129;-70
2023/10/14 11:38:31;;;;;;;11.38;2.67;;;12.60;99.90;;;;;;4963623;28;20039;-69
2023/10/14 11:41:02;;;;;;;14.68;2.53;;;12.60;99.90;;;;;;4945824;28;20054;-71
2023/10/14 11:43:28;;;;;;;18.20;1.98;;;12.50;99.90;;;;;;4960308;28;20043;-70
2023/10/14 11:45:57;;;;;;;9.63;1.77;;;12.50;99.90;;;;;;4959996;28;20394;-68
2023/10/14 11:48:27;;;;;;;14.02;1.98;;;12.80;99.90;;;;;;4945302;28;20054;-69
2023/10/14 11:51:00;;;;;;;15.98;2.55;;;13.10;99.90;;;;;;4930248;28;20521;-70
2023/10/14 11:53:33;;;;;;;11.75;2.33;;;13.30;99.90;;;;;;4960873;28;20200;-71
2023/10/14 11:56:00;;;;;;;12.10;2.08;;;13.50;99.90;;;;;;4960425;28;20074;-70
2023/10/14 11:58:31;;;;;;;11.00;2.00;;;13.50;99.90;;;;;;4944430;28;20046;-71
2023/10/14 12:00:57;;;;;;;10.48;2.10;;;13.50;99.90;;;;;;4963019;28;20039;-72
2023/10/14 12:03:25;;;;;;;18.50;2.00;;;13.60;99.90;;;;;;4960805;28;20517;-68
2023/10/14 12:05:57;;;;;;;14.35;2.10;;;13.70;99.90;;;;;;4963009;28;20048;-71
2023/10/14 12:08:32;;;;;;;8.73;2.03;;;13.70;99.90;;;;;;4962720;28;20046;-73
2023/10/14 12:10:59;;;;;;;17.20;2.38;;;13.90;99.90;;;;;;4959502;28;20487;-70
2023/10/14 12:13:27;;;;;;;14.52;2.58;;;13.80;99.90;;;;;;4961417;28;20122;-70
2023/10/14 12:15:56;;;;;;;9.90;2.03;;;13.70;99.90;;;;;;4932167;28;20046;-74
2023/10/14 12:18:21;;;;;;;11.25;2.22;;;13.40;99.90;;;;;;4945733;28;20051;-70
2023/10/14 12:20:48;;;;;;;11.32;2.13;;;13.40;99.90;;;;;;4943225;28;20129;-70
2023/10/14 12:23:18;;;;;;;11.48;2.67;;;13.40;99.90;;;;;;4959913;28;20054;-70
2023/10/14 12:25:53;;;;;;;11.80;2.25;;;13.70;99.90;;;;;;4960431;28;20538;-71
2023/10/14 12:28:30;;;;;;;17.50;2.45;;;13.60;99.90;;;;;;4945294;28;20058;-69
2023/10/14 12:30:58;;;;;;;18.75;2.90;;;13.50;99.90;;;;;;4964476;28;20038;-69
2023/10/14 12:33:38;;;;;;;13.15;2.15;;;13.70;99.90;;;;;;4962932;28;20050;-69
2023/10/14 12:36:17;;;;;;;17.20;3.15;;;13.60;99.90;;;;;;4960804;28;20059;-69
2023/10/14 12:38:43;;;;;;;11.48;2.25;;;13.50;99.90;;;;;;4959555;28;20435;-69
2023/10/14 12:41:21;;;;;;;15.30;2.20;;;13.80;99.90;;;;;;4961588;28;20042;-70
2023/10/14 12:43:59;;;;;;;17.73;2.78;;;13.80;99.90;;;;;;4962577;28;20050;-69
2023/10/14 12:46:33;;;;;;;14.13;1.85;;;14.10;99.90;;;;;;4953144;28;20482;-73
2023/10/14 12:49:02;;;;;;;14.45;2.10;;;14.00;99.90;;;;;;4954609;28;20592;-69
2023/10/14 12:51:31;;;;;;;31.10;2.97;;;14.10;99.90;;;;;;4962194;28;20050;-70
2023/10/14 12:54:01;;;;;;;13.15;2.30;;;14.10;99.90;;;;;;4962523;28;20078;-70
2023/10/14 12:56:27;;;;;;;8.43;1.80;;;14.30;99.90;;;;;;4943037;28;20047;-69
2023/10/14 12:58:53;;;;;;;12.10;1.90;;;14.40;99.90;;;;;;4959474;28;20042;-71
2023/10/14 13:01:20;;;;;;;13.60;2.45;;;14.40;99.90;;;;;;4959661;28;20094;-70
2023/10/14 13:03:56;;;;;;;10.52;2.28;;;14.60;99.90;;;;;;4962260;28;20105;-68
2023/10/14 13:06:24;;;;;;;14.85;2.03;;;14.80;99.90;;;;;;4944486;28;20514;-68
2023/10/14 13:08:50;;;;;;;16.77;2.28;;;15.00;99.90;;;;;;4959441;28;20047;-69
2023/10/14 13:11:17;;;;;;;11.32;2.00;;;15.20;99.90;;;;;;4959519;28;20048;-73
2023/10/14 13:13:50;;;;;;;15.50;1.95;;;15.00;99.90;;;;;;4961368;28;20051;-71
2023/10/14 13:16:20;;;;;;;15.32;2.50;;;15.20;99.90;;;;;;4944760;28;20102;-69
2023/10/14 13:18:47;;;;;;;14.55;2.85;;;15.30;99.90;;;;;;4960332;28;20581;-74
2023/10/14 13:21:15;;;;;;;12.38;2.20;;;14.60;99.90;;;;;;4942009;29;20051;-70
2023/10/14 13:23:46;;;;;;;15.80;2.17;;;14.50;99.90;;;;;;4942481;28;20110;-69
2023/10/14 13:26:15;;;;;;;12.18;1.80;;;14.10;99.90;;;;;;4962716;28;20118;-68
2023/10/14 13:28:45;;;;;;;10.10;1.98;;;14.10;99.90;;;;;;4947527;28;20434;-73
2023/10/14 13:31:12;;;;;;;12.80;2.30;;;14.00;99.90;;;;;;4954554;28;20047;-69
2023/10/14 13:33:38;;;;;;;14.18;1.90;;;13.70;99.90;;;;;;4945825;29;20047;-69
2023/10/14 13:36:09;;;;;;;12.23;2.03;;;13.70;99.90;;;;;;4966114;28;20550;-70
2023/10/14 13:38:39;;;;;;;12.48;2.65;;;13.90;99.90;;;;;;4968096;28;20574;-68
2023/10/14 13:41:06;;;;;;;15.48;2.58;;;14.20;99.90;;;;;;4966276;28;20047;-75